• Join FlightAware (Why Join?)
  • Login
  • US Flag 
10:50AM EDT


 

Airport Tracker/Info


-or-


 

Live Flight TrackerFlight Track Log ✈ AWE3417 ✈ 26-Apr-2013 ✈ KDCA - KCMH

Flight Track Log - Related Links

Times and Time Zones

All times are in EDT time to prevent confusion due to time zone crossing. See the AWE3417 flight status page for this flight to view local times or setup timezone preferences in your user account.

Time Position Orientation Groundspeed Altitude Reporting Facility
EDT Latitude Longitude Course Direction KTS MPH feet Rate Location/Type
07:43PM 38.8667 -77.0500 270° West 146 168 800  Level Potomac TRACON
07:44PM 38.9000 -77.0833 322° Northwest 177 204 2,700 2,280 Climbing Potomac TRACON
07:45PM 38.9500 -77.1333 322° Northwest 237 273 5,400 2,940 Climbing Potomac TRACON
07:46PM 38.9333 -77.5004 270° West  Level FlightAware Approximate
07:47PM 38.9333 -77.6257 270° West  Level FlightAware Approximate
07:47PM 38.9978 -77.2583 296° West 238 274 10,800  Level Washington Center
07:48PM 38.9333 -77.7509 270° West  Level FlightAware Approximate
07:48PM 38.9942 -77.3678 268° West 267 307 12,300  Level Washington Center
07:49PM 38.9903 -77.4850 268° West 303 349 14,700 2,520 Climbing Washington Center
07:50PM 38.9861 -77.6106 268° West 343 395 17,300 2,160 Climbing Washington Center
07:51PM 38.9817 -77.7386 267° West 357 411 19,200 1,860 Climbing Washington Center
07:52PM 38.9753 -77.8639 266° West 362 417 21,100 1,860 Climbing Washington Center
07:53PM 38.9708 -77.9867 267° West 371 427 22,900 1,860 Climbing Washington Center
07:54PM 38.9639 -78.1197 266° West 376 433 25,000 1,740 Climbing Washington Center
07:55PM 38.9631 -78.2533 270° West 376 433 26,400 1,260 Climbing Washington Center
07:56PM 38.9664 -78.3842 272° West 376 433 27,600 1,020 Climbing Washington Center
07:57PM 38.9714 -78.5233 273° West 383 441 28,500 900 Climbing Washington Center
07:58PM 38.9764 -78.6622 273° West 383 441 29,400 1,140 Climbing Washington Center
07:59PM 38.9792 -78.7986 272° West 389 448 30,800 780 Climbing Washington Center
08:00PM 38.9833 -78.9483 272° West 384 442 31,000 60 Climbing Washington Center
08:01PM 38.9856 -79.0847 271° West 384 442 31,000  Level Washington Center
08:02PM 38.9900 -79.2211 272° West 389 448 31,000  Level Washington Center
08:03PM 38.9942 -79.3603 272° West 389 448 31,000  Level Washington Center
08:04PM 38.9981 -79.4994 272° West 389 448 31,000  Level Washington Center
08:05PM 38.9975 -79.6408 270° West 395 455 31,000  Level Washington Center
08:06PM 39.0011 -79.7772 272° West 395 455 31,000  Level Washington Center
08:07PM 39.0025 -79.9164 271° West 395 455 31,000  Level Washington Center
08:08PM 39.0058 -80.0528 272° West 395 455 31,000  Level Washington Center
08:09PM 39.0067 -80.2203 270° West 382 440 31,000  Level Indianapolis Center
08:10PM 39.0219 -80.3544 278° West 378 435 31,000  Level Indianapolis Center
08:11PM 39.0589 -80.4778 291° West 376 433 31,000  Level Indianapolis Center
08:12PM 39.0950 -80.6042 290° West 377 434 31,000  Level Indianapolis Center
08:13PM 39.1319 -80.7303 291° West 377 434 31,000  Level Indianapolis Center
08:14PM 39.1692 -80.8553 291° West 376 433 31,000  Level Indianapolis Center
08:15PM 39.2053 -80.9806 290° West 375 432 31,000  Level Indianapolis Center
08:16PM 39.2492 -81.1328 290° West 379 436 31,000 -300 Level Indianapolis Center
08:17PM 39.2844 -81.2564 290° West 370 426 30,400 -840 Descending Indianapolis Center
08:18PM 39.3208 -81.3831 290° West 376 433 29,400 -1,500 Descending Indianapolis Center
08:19PM 39.3586 -81.5133 291° West 387 445 27,400 -1,920 Descending Indianapolis Center
08:20PM 39.3961 -81.6467 290° West 395 455 25,500 -1,860 Descending Indianapolis Center
08:21PM 39.4319 -81.7783 289° West 391 450 23,600 -1,860 Descending Indianapolis Center
08:22PM 39.4683 -81.9075 290° West 384 442 21,800 -2,040 Descending Indianapolis Center
08:23PM 39.4950 -82.0103 289° West 376 433 20,200 -2,040 Descending Indianapolis Center
08:23PM 39.5033 -82.0339 295° West 375 432 19,700 -1,980 Descending Indianapolis Center
08:24PM 39.5483 -82.1642 294° West 364 419 17,600 -2,100 Descending Indianapolis Center
08:25PM 39.6261 -82.2631 316° Northwest 369 425 15,500 -1,980 Descending Indianapolis Center
08:27PM 39.6986 -82.3583 315° West 368 423 13,500 -1,920 Descending Indianapolis Center
08:28PM 39.7675 -82.4506 314° West 358 412 11,600 -1,740 Descending Indianapolis Center
08:29PM 39.8114 -82.5736 295° West 356 410 10,000 -900 Descending Indianapolis Center
08:29PM 39.8425 -82.6747 292° West 317 365 9,900 -960 Descending Indianapolis Center
08:31PM 39.8750 -82.7842 291° West 268 308 8,100 -1,920 Descending Indianapolis Center
08:32PM 39.9019 -82.8825 290° West 276 318 5,800 -2,400 Descending Indianapolis Center
08:32PM 39.9172 -82.9656 284° West 270 311 3,500 -1,440 Descending Indianapolis Center
08:34PM 39.9353 -83.0661 283° West 261 300 2,900 -240 Descending Indianapolis Center
08:35PM 39.9739 -83.1089 320° Northwest 218 251 3,000 60 Climbing Indianapolis Center